Accueil
METAR-TAF:

METAR-TAF

Aéroports :

Aéroport international Mano Dayak

Agadez, Niger

latitude: 16-58N, longitude: 007-59E, altitude: 501 m

Observation

Le bulletin a été fait il y a 9 heures et 13 minutes, à 18:00 UTC
Vent 6 kt de nord
Température 38°C
Humidité 14%
Pression 1008 hPa
Visibilité 10 km ou plus
pas de nuages en-dessous de 1500 mètres et pas de cumulonimbus.

METAR: DRZA 021800Z 36006KT CAVOK 38/06 Q1008

Heure: 04:13 (03:13 UTC)

Prévision

Le bulletin a été fait il y a 4 heures et 13 minutes, à 23:00 UTC
Prévision valable du 03 à 00 UTC au 03 à 24 UTC
Vent 10 kt de nord
Visibilité: 8000 m

TAF: DRZA 022300Z 0300/0324 35010KT 8000 NSC

Observations et prévisions météorologiques de plus de 4000 aéroports (messages METAR et TAF).

Les stations disponibles sont représentées par des disques jaunes et rouges sur la carte.

Passer la souris dessus pour voir le nom de la station.

Cliquer dessus pour voir les observations et prévisions météorologiques.

Pour changer de carte: cliquez sur les boutons verts avec une croix noire pour zoomer, sur le bouton vert avec un tiret pour effectuer un zoom arrière, ou sur les flèches vertes pour les cartes adjacentes.


METAR-TAF: